sensor_id;sensor_type;location;lat;lon;timestamp;temperature;humidity
9816;DHT22;4947;44.526;11.360;2023-04-01T00:02:02;13.50;99.90
9816;DHT22;4947;44.526;11.360;2023-04-01T00:04:30;13.40;99.90
9816;DHT22;4947;44.526;11.360;2023-04-01T00:06:57;13.50;99.90
9816;DHT22;4947;44.526;11.360;2023-04-01T00:09:26;13.50;99.90
9816;DHT22;4947;44.526;11.360;2023-04-01T00:11:54;13.50;99.90
9816;DHT22;4947;44.526;11.360;2023-04-01T00:14:21;13.50;99.90
9816;DHT22;4947;44.526;11.360;2023-04-01T00:16:49;13.50;99.90
9816;DHT22;4947;44.526;11.360;2023-04-01T00:19:16;13.50;99.90
9816;DHT22;4947;44.526;11.360;2023-04-01T00:21:43;13.50;99.90
9816;DHT22;4947;44.526;11.360;2023-04-01T00:24:11;13.40;99.90
9816;DHT22;4947;44.526;11.360;2023-04-01T00:26:40;13.40;99.90
9816;DHT22;4947;44.526;11.360;2023-04-01T00:29:07;13.40;99.90
9816;DHT22;4947;44.526;11.360;2023-04-01T00:31:35;13.30;99.90
9816;DHT22;4947;44.526;11.360;2023-04-01T00:34:03;13.30;99.90
9816;DHT22;4947;44.526;11.360;2023-04-01T00:36:30;13.30;99.90
9816;DHT22;4947;44.526;11.360;2023-04-01T00:38:58;13.30;99.90
9816;DHT22;4947;44.526;11.360;2023-04-01T00:41:25;13.30;99.90
9816;DHT22;4947;44.526;11.360;2023-04-01T00:44:14;13.20;99.90
9816;DHT22;4947;44.526;11.360;2023-04-01T00:46:43;13.10;99.90
9816;DHT22;4947;44.526;11.360;2023-04-01T00:49:10;13.10;99.90
9816;DHT22;4947;44.526;11.360;2023-04-01T00:51:39;13.10;99.90
9816;DHT22;4947;44.526;11.360;2023-04-01T00:54:09;13.20;99.90
9816;DHT22;4947;44.526;11.360;2023-04-01T00:56:39;13.20;99.90
9816;DHT22;4947;44.526;11.360;2023-04-01T00:59:13;13.10;99.90
9816;DHT22;4947;44.526;11.360;2023-04-01T01:01:41;13.20;99.90
9816;DHT22;4947;44.526;11.360;2023-04-01T01:04:24;13.20;99.90
9816;DHT22;4947;44.526;11.360;2023-04-01T01:06:59;13.30;99.90
9816;DHT22;4947;44.526;11.360;2023-04-01T01:09:35;13.30;99.90
9816;DHT22;4947;44.526;11.360;2023-04-01T01:12:10;13.20;99.90
9816;DHT22;4947;44.526;11.360;2023-04-01T01:14:48;13.10;99.90
9816;DHT22;4947;44.526;11.360;2023-04-01T01:17:26;13.10;99.90
9816;DHT22;4947;44.526;11.360;2023-04-01T01:20:35;13.10;99.90
9816;DHT22;4947;44.526;11.360;2023-04-01T01:26:39;12.90;99.90
9816;DHT22;4947;44.526;11.360;2023-04-01T01:32:07;12.80;99.90
9816;DHT22;4947;44.526;11.360;2023-04-01T01:34:43;12.80;99.90
9816;DHT22;4947;44.526;11.360;2023-04-01T01:37:16;12.80;99.90
9816;DHT22;4947;44.526;11.360;2023-04-01T01:39:58;12.70;99.90
9816;DHT22;4947;44.526;11.360;2023-04-01T01:42:28;12.70;99.90
9816;DHT22;4947;44.526;11.360;2023-04-01T01:44:59;12.70;99.90
9816;DHT22;4947;44.526;11.360;2023-04-01T01:47:27;12.60;99.90
9816;DHT22;4947;44.526;11.360;2023-04-01T01:49:55;12.60;99.90
9816;DHT22;4947;44.526;11.360;2023-04-01T01:52:27;12.50;99.90
9816;DHT22;4947;44.526;11.360;2023-04-01T01:54:57;12.50;99.90
9816;DHT22;4947;44.526;11.360;2023-04-01T01:57:26;12.50;99.90
9816;DHT22;4947;44.526;11.360;2023-04-01T01:59:59;12.40;99.90
9816;DHT22;4947;44.526;11.360;2023-04-01T02:02:29;12.40;99.90
9816;DHT22;4947;44.526;11.360;2023-04-01T02:04:57;12.30;99.90
9816;DHT22;4947;44.526;11.360;2023-04-01T02:07:31;12.30;99.90
9816;DHT22;4947;44.526;11.360;2023-04-01T02:10:00;12.30;99.90
9816;DHT22;4947;44.526;11.360;2023-04-01T02:12:29;12.30;99.90
9816;DHT22;4947;44.526;11.360;2023-04-01T02:14:59;12.20;99.90
9816;DHT22;4947;44.526;11.360;2023-04-01T02:17:31;12.10;99.90
9816;DHT22;4947;44.526;11.360;2023-04-01T02:20:02;12.10;99.90
9816;DHT22;4947;44.526;11.360;2023-04-01T02:22:35;12.00;99.90
9816;DHT22;4947;44.526;11.360;2023-04-01T02:25:06;12.00;99.90
9816;DHT22;4947;44.526;11.360;2023-04-01T02:27:34;12.00;99.90
9816;DHT22;4947;44.526;11.360;2023-04-01T02:30:02;12.10;99.90
9816;DHT22;4947;44.526;11.360;2023-04-01T02:32:31;12.10;99.90
9816;DHT22;4947;44.526;11.360;2023-04-01T02:34:59;12.10;99.90
9816;DHT22;4947;44.526;11.360;2023-04-01T02:37:32;12.10;99.90
9816;DHT22;4947;44.526;11.360;2023-04-01T02:40:00;12.00;99.90
9816;DHT22;4947;44.526;11.360;2023-04-01T02:42:27;12.10;99.90
9816;DHT22;4947;44.526;11.360;2023-04-01T02:44:55;12.10;99.90
9816;DHT22;4947;44.526;11.360;2023-04-01T02:47:23;12.00;99.90
9816;DHT22;4947;44.526;11.360;2023-04-01T02:49:50;12.10;99.90
9816;DHT22;4947;44.526;11.360;2023-04-01T02:52:23;12.10;99.90
9816;DHT22;4947;44.526;11.360;2023-04-01T02:54:52;12.10;99.90
9816;DHT22;4947;44.526;11.360;2023-04-01T02:57:19;12.10;99.90
9816;DHT22;4947;44.526;11.360;2023-04-01T02:59:47;12.00;99.90
9816;DHT22;4947;44.526;11.360;2023-04-01T03:02:15;12.00;99.90
9816;DHT22;4947;44.526;11.360;2023-04-01T03:04:43;11.90;99.90
9816;DHT22;4947;44.526;11.360;2023-04-01T03:07:11;11.90;99.90
9816;DHT22;4947;44.526;11.360;2023-04-01T03:09:38;11.90;99.90
9816;DHT22;4947;44.526;11.360;2023-04-01T03:12:07;11.80;99.90
9816;DHT22;4947;44.526;11.360;2023-04-01T03:14:35;11.90;99.90
9816;DHT22;4947;44.526;11.360;2023-04-01T03:17:02;11.80;99.90
9816;DHT22;4947;44.526;11.360;2023-04-01T03:19:31;11.70;99.90
9816;DHT22;4947;44.526;11.360;2023-04-01T03:21:58;11.70;99.90
9816;DHT22;4947;44.526;11.360;2023-04-01T03:24:26;11.70;99.90
9816;DHT22;4947;44.526;11.360;2023-04-01T03:26:53;11.70;99.90
9816;DHT22;4947;44.526;11.360;2023-04-01T03:29:23;11.60;99.90
9816;DHT22;4947;44.526;11.360;2023-04-01T03:31:50;11.70;99.90
9816;DHT22;4947;44.526;11.360;2023-04-01T03:34:19;11.60;99.90
9816;DHT22;4947;44.526;11.360;2023-04-01T03:36:46;11.60;99.90
9816;DHT22;4947;44.526;11.360;2023-04-01T03:39:14;11.50;99.90
9816;DHT22;4947;44.526;11.360;2023-04-01T03:41:44;11.50;99.90
9816;DHT22;4947;44.526;11.360;2023-04-01T03:44:11;11.40;99.90
9816;DHT22;4947;44.526;11.360;2023-04-01T03:46:41;11.30;99.90
9816;DHT22;4947;44.526;11.360;2023-04-01T03:49:09;11.30;99.90
9816;DHT22;4947;44.526;11.360;2023-04-01T03:51:37;11.30;99.90
9816;DHT22;4947;44.526;11.360;2023-04-01T03:54:05;11.20;99.90
9816;DHT22;4947;44.526;11.360;2023-04-01T03:56:32;11.10;99.90
9816;DHT22;4947;44.526;11.360;2023-04-01T03:59:02;11.10;99.90
9816;DHT22;4947;44.526;11.360;2023-04-01T04:01:30;11.00;99.90
9816;DHT22;4947;44.526;11.360;2023-04-01T04:03:59;10.90;99.90
9816;DHT22;4947;44.526;11.360;2023-04-01T04:06:27;10.80;99.90
9816;DHT22;4947;44.526;11.360;2023-04-01T04:08:55;10.80;99.90
9816;DHT22;4947;44.526;11.360;2023-04-01T04:11:22;10.70;99.90
9816;DHT22;4947;44.526;11.360;2023-04-01T04:13:50;10.60;99.90
9816;DHT22;4947;44.526;11.360;2023-04-01T04:16:19;10.60;99.90
9816;DHT22;4947;44.526;11.360;2023-04-01T04:18:47;10.50;99.90
9816;DHT22;4947;44.526;11.360;2023-04-01T04:21:16;10.50;99.90
9816;DHT22;4947;44.526;11.360;2023-04-01T04:23:44;10.60;99.90
9816;DHT22;4947;44.526;11.360;2023-04-01T04:26:13;10.60;99.90
9816;DHT22;4947;44.526;11.360;2023-04-01T04:28:42;10.70;99.90
9816;DHT22;4947;44.526;11.360;2023-04-01T04:31:10;10.70;99.90
9816;DHT22;4947;44.526;11.360;2023-04-01T04:33:38;10.70;99.90
9816;DHT22;4947;44.526;11.360;2023-04-01T04:36:06;10.60;99.90
9816;DHT22;4947;44.526;11.360;2023-04-01T04:38:36;10.60;99.90
9816;DHT22;4947;44.526;11.360;2023-04-01T04:41:04;10.60;99.90
9816;DHT22;4947;44.526;11.360;2023-04-01T04:43:34;10.60;99.90
9816;DHT22;4947;44.526;11.360;2023-04-01T04:46:04;10.60;99.90
9816;DHT22;4947;44.526;11.360;2023-04-01T04:48:33;10.60;99.90
9816;DHT22;4947;44.526;11.360;2023-04-01T04:51:00;10.70;99.90
9816;DHT22;4947;44.526;11.360;2023-04-01T04:53:27;10.60;99.90
9816;DHT22;4947;44.526;11.360;2023-04-01T04:55:57;10.70;99.90
9816;DHT22;4947;44.526;11.360;2023-04-01T04:58:25;10.60;99.90
9816;DHT22;4947;44.526;11.360;2023-04-01T05:00:53;10.60;99.90
9816;DHT22;4947;44.526;11.360;2023-04-01T05:03:20;10.60;99.90
9816;DHT22;4947;44.526;11.360;2023-04-01T05:05:49;10.60;99.90
9816;DHT22;4947;44.526;11.360;2023-04-01T05:08:17;10.60;99.90
9816;DHT22;4947;44.526;11.360;2023-04-01T05:10:45;10.50;99.90
9816;DHT22;4947;44.526;11.360;2023-04-01T05:13:14;10.60;99.90
9816;DHT22;4947;44.526;11.360;2023-04-01T05:15:42;10.60;99.90
9816;DHT22;4947;44.526;11.360;2023-04-01T05:18:09;10.60;99.90
9816;DHT22;4947;44.526;11.360;2023-04-01T05:20:37;10.70;99.90
9816;DHT22;4947;44.526;11.360;2023-04-01T05:23:04;10.60;99.90
9816;DHT22;4947;44.526;11.360;2023-04-01T05:25:33;10.60;99.90
9816;DHT22;4947;44.526;11.360;2023-04-01T05:28:00;10.70;99.90
9816;DHT22;4947;44.526;11.360;2023-04-01T05:30:29;10.60;99.90
9816;DHT22;4947;44.526;11.360;2023-04-01T05:32:57;10.60;99.90
9816;DHT22;4947;44.526;11.360;2023-04-01T05:35:28;10.70;99.90
9816;DHT22;4947;44.526;11.360;2023-04-01T05:37:56;10.70;99.90
9816;DHT22;4947;44.526;11.360;2023-04-01T05:40:23;10.70;99.90
9816;DHT22;4947;44.526;11.360;2023-04-01T05:42:51;10.80;99.90
9816;DHT22;4947;44.526;11.360;2023-04-01T05:45:18;10.80;99.90
9816;DHT22;4947;44.526;11.360;2023-04-01T05:47:47;10.80;99.90
9816;DHT22;4947;44.526;11.360;2023-04-01T05:50:15;10.90;99.90
9816;DHT22;4947;44.526;11.360;2023-04-01T05:52:43;10.90;99.90
9816;DHT22;4947;44.526;11.360;2023-04-01T05:55:11;11.00;99.90
9816;DHT22;4947;44.526;11.360;2023-04-01T05:57:39;11.00;99.90
9816;DHT22;4947;44.526;11.360;2023-04-01T06:00:07;11.00;99.90
9816;DHT22;4947;44.526;11.360;2023-04-01T06:02:35;11.10;99.90
9816;DHT22;4947;44.526;11.360;2023-04-01T06:05:12;11.10;99.90
9816;DHT22;4947;44.526;11.360;2023-04-01T06:07:40;11.20;99.90
9816;DHT22;4947;44.526;11.360;2023-04-01T06:10:13;11.10;99.90
9816;DHT22;4947;44.526;11.360;2023-04-01T06:12:49;11.10;99.90
9816;DHT22;4947;44.526;11.360;2023-04-01T06:15:25;11.20;99.90
9816;DHT22;4947;44.526;11.360;2023-04-01T06:18:10;11.20;99.90
9816;DHT22;4947;44.526;11.360;2023-04-01T06:20:51;11.30;99.90
9816;DHT22;4947;44.526;11.360;2023-04-01T06:26:24;11.50;99.90
9816;DHT22;4947;44.526;11.360;2023-04-01T06:29:18;11.60;99.90
9816;DHT22;4947;44.526;11.360;2023-04-01T06:32:02;11.70;99.90
9816;DHT22;4947;44.526;11.360;2023-04-01T06:34:58;11.80;99.90
9816;DHT22;4947;44.526;11.360;2023-04-01T06:38:00;11.90;99.90
9816;DHT22;4947;44.526;11.360;2023-04-01T06:40:43;12.10;99.90
9816;DHT22;4947;44.526;11.360;2023-04-01T06:43:18;12.20;99.90
9816;DHT22;4947;44.526;11.360;2023-04-01T06:45:54;12.40;99.90
9816;DHT22;4947;44.526;11.360;2023-04-01T06:48:37;12.60;99.90
9816;DHT22;4947;44.526;11.360;2023-04-01T06:51:16;12.80;99.90
9816;DHT22;4947;44.526;11.360;2023-04-01T06:53:54;12.90;99.90
9816;DHT22;4947;44.526;11.360;2023-04-01T06:56:25;13.10;99.90
9816;DHT22;4947;44.526;11.360;2023-04-01T06:58:57;13.20;99.90
9816;DHT22;4947;44.526;11.360;2023-04-01T07:01:33;13.30;99.90
9816;DHT22;4947;44.526;11.360;2023-04-01T07:04:05;13.30;99.90
9816;DHT22;4947;44.526;11.360;2023-04-01T07:06:37;13.40;99.90
9816;DHT22;4947;44.526;11.360;2023-04-01T07:09:12;13.60;99.90
9816;DHT22;4947;44.526;11.360;2023-04-01T07:11:41;13.90;99.90
9816;DHT22;4947;44.526;11.360;2023-04-01T07:14:15;14.30;99.90
9816;DHT22;4947;44.526;11.360;2023-04-01T07:16:46;14.60;99.90
9816;DHT22;4947;44.526;11.360;2023-04-01T07:19:20;15.10;99.90
9816;DHT22;4947;44.526;11.360;2023-04-01T07:21:51;15.60;99.90
9816;DHT22;4947;44.526;11.360;2023-04-01T07:24:26;16.20;97.00
9816;DHT22;4947;44.526;11.360;2023-04-01T07:26:55;17.00;94.50
9816;DHT22;4947;44.526;11.360;2023-04-01T07:29:23;17.50;92.20
9816;DHT22;4947;44.526;11.360;2023-04-01T07:32:13;17.60;90.80
9816;DHT22;4947;44.526;11.360;2023-04-01T07:34:53;18.20;90.00
9816;DHT22;4947;44.526;11.360;2023-04-01T07:37:29;18.30;86.20
9816;DHT22;4947;44.526;11.360;2023-04-01T07:40:07;18.50;82.70
9816;DHT22;4947;44.526;11.360;2023-04-01T07:42:47;19.00;80.90
9816;DHT22;4947;44.526;11.360;2023-04-01T07:45:27;19.10;78.40
9816;DHT22;4947;44.526;11.360;2023-04-01T07:48:11;19.40;78.20
9816;DHT22;4947;44.526;11.360;2023-04-01T07:50:48;19.30;74.60
9816;DHT22;4947;44.526;11.360;2023-04-01T07:53:22;19.30;73.10
9816;DHT22;4947;44.526;11.360;2023-04-01T07:56:01;19.40;74.20
9816;DHT22;4947;44.526;11.360;2023-04-01T07:58:42;19.70;72.40
9816;DHT22;4947;44.526;11.360;2023-04-01T08:01:18;20.40;67.20
9816;DHT22;4947;44.526;11.360;2023-04-01T08:06:51;19.90;72.50
9816;DHT22;4947;44.526;11.360;2023-04-01T08:09:27;20.50;67.70
9816;DHT22;4947;44.526;11.360;2023-04-01T08:12:07;21.00;66.00
9816;DHT22;4947;44.526;11.360;2023-04-01T08:14:47;20.80;63.80
9816;DHT22;4947;44.526;11.360;2023-04-01T08:17:23;20.30;68.10
9816;DHT22;4947;44.526;11.360;2023-04-01T08:20:02;20.90;65.30
9816;DHT22;4947;44.526;11.360;2023-04-01T08:22:39;21.40;62.90
9816;DHT22;4947;44.526;11.360;2023-04-01T08:25:16;21.80;61.50
9816;DHT22;4947;44.526;11.360;2023-04-01T08:27:50;22.10;62.60
9816;DHT22;4947;44.526;11.360;2023-04-01T08:30:21;23.10;58.10
9816;DHT22;4947;44.526;11.360;2023-04-01T08:32:54;23.10;56.60
9816;DHT22;4947;44.526;11.360;2023-04-01T08:35:29;22.90;56.70
9816;DHT22;4947;44.526;11.360;2023-04-01T08:38:01;23.00;55.60
9816;DHT22;4947;44.526;11.360;2023-04-01T08:40:53;23.30;55.80
9816;DHT22;4947;44.526;11.360;2023-04-01T08:46:56;22.80;55.50
9816;DHT22;4947;44.526;11.360;2023-04-01T08:49:39;23.50;56.10
9816;DHT22;4947;44.526;11.360;2023-04-01T08:52:26;23.50;54.70
9816;DHT22;4947;44.526;11.360;2023-04-01T08:55:26;23.40;54.30
9816;DHT22;4947;44.526;11.360;2023-04-01T08:58:06;24.10;52.10
9816;DHT22;4947;44.526;11.360;2023-04-01T09:00:40;24.30;52.80
9816;DHT22;4947;44.526;11.360;2023-04-01T09:03:21;24.30;52.40
9816;DHT22;4947;44.526;11.360;2023-04-01T09:06:26;24.90;51.20
9816;DHT22;4947;44.526;11.360;2023-04-01T09:09:21;24.60;50.20
9816;DHT22;4947;44.526;11.360;2023-04-01T09:12:07;24.70;50.30
9816;DHT22;4947;44.526;11.360;2023-04-01T09:17:56;25.50;49.60
9816;DHT22;4947;44.526;11.360;2023-04-01T09:24:00;25.20;51.60
9816;DHT22;4947;44.526;11.360;2023-04-01T09:26:44;24.90;51.60
9816;DHT22;4947;44.526;11.360;2023-04-01T09:29:31;25.60;51.80
9816;DHT22;4947;44.526;11.360;2023-04-01T09:32:14;26.00;48.10
9816;DHT22;4947;44.526;11.360;2023-04-01T09:34:55;25.40;47.90
9816;DHT22;4947;44.526;11.360;2023-04-01T09:37:35;25.50;48.40
9816;DHT22;4947;44.526;11.360;2023-04-01T09:40:17;25.90;47.60
9816;DHT22;4947;44.526;11.360;2023-04-01T09:42:56;25.60;46.80
9816;DHT22;4947;44.526;11.360;2023-04-01T09:45:43;26.20;49.20
9816;DHT22;4947;44.526;11.360;2023-04-01T09:48:34;26.10;46.70
9816;DHT22;4947;44.526;11.360;2023-04-01T09:51:20;25.90;46.90
9816;DHT22;4947;44.526;11.360;2023-04-01T09:54:01;25.80;46.60
9816;DHT22;4947;44.526;11.360;2023-04-01T09:56:59;25.50;47.70
9816;DHT22;4947;44.526;11.360;2023-04-01T10:06:34;24.10;48.50
9816;DHT22;4947;44.526;11.360;2023-04-01T10:09:46;23.00;48.40
9816;DHT22;4947;44.526;11.360;2023-04-01T10:15:37;22.40;51.50
9816;DHT22;4947;44.526;11.360;2023-04-01T10:27:30;21.40;51.70
9816;DHT22;4947;44.526;11.360;2023-04-01T10:30:29;21.30;51.20
9816;DHT22;4947;44.526;11.360;2023-04-01T10:36:47;21.20;52.30
9816;DHT22;4947;44.526;11.360;2023-04-01T10:46:21;20.90;49.80
9816;DHT22;4947;44.526;11.360;2023-04-01T11:01:27;20.80;50.70
9816;DHT22;4947;44.526;11.360;2023-04-01T11:04:26;20.70;49.30
9816;DHT22;4947;44.526;11.360;2023-04-01T11:07:35;20.80;52.10
9816;DHT22;4947;44.526;11.360;2023-04-01T11:10:25;20.70;51.60
9816;DHT22;4947;44.526;11.360;2023-04-01T11:13:38;20.80;52.30
9816;DHT22;4947;44.526;11.360;2023-04-01T11:16:27;20.90;50.30
9816;DHT22;4947;44.526;11.360;2023-04-01T11:19:12;20.80;50.60
9816;DHT22;4947;44.526;11.360;2023-04-01T11:24:53;20.70;50.80
9816;DHT22;4947;44.526;11.360;2023-04-01T11:27:38;20.70;50.80
9816;DHT22;4947;44.526;11.360;2023-04-01T11:30:17;20.70;47.00
9816;DHT22;4947;44.526;11.360;2023-04-01T11:32:52;20.60;49.70
9816;DHT22;4947;44.526;11.360;2023-04-01T11:35:38;20.70;48.90
9816;DHT22;4947;44.526;11.360;2023-04-01T11:38:37;20.70;48.70
9816;DHT22;4947;44.526;11.360;2023-04-01T11:41:15;20.60;47.80
9816;DHT22;4947;44.526;11.360;2023-04-01T11:43:57;20.50;47.80
9816;DHT22;4947;44.526;11.360;2023-04-01T11:46:39;20.60;47.50
9816;DHT22;4947;44.526;11.360;2023-04-01T11:49:23;20.50;47.20
9816;DHT22;4947;44.526;11.360;2023-04-01T11:52:04;20.50;46.60
9816;DHT22;4947;44.526;11.360;2023-04-01T11:54:55;20.50;47.60
9816;DHT22;4947;44.526;11.360;2023-04-01T11:57:42;20.60;47.20
9816;DHT22;4947;44.526;11.360;2023-04-01T12:00:32;20.60;45.70
9816;DHT22;4947;44.526;11.360;2023-04-01T12:03:21;20.60;46.10
9816;DHT22;4947;44.526;11.360;2023-04-01T12:05:58;20.70;45.10
9816;DHT22;4947;44.526;11.360;2023-04-01T12:08:37;20.70;45.80
9816;DHT22;4947;44.526;11.360;2023-04-01T12:11:12;20.70;46.40
9816;DHT22;4947;44.526;11.360;2023-04-01T12:13:51;20.70;46.40
9816;DHT22;4947;44.526;11.360;2023-04-01T12:16:29;20.80;47.90
9816;DHT22;4947;44.526;11.360;2023-04-01T12:19:11;20.80;45.70
9816;DHT22;4947;44.526;11.360;2023-04-01T12:21:48;20.90;45.10
9816;DHT22;4947;44.526;11.360;2023-04-01T12:27:43;21.00;43.90
9816;DHT22;4947;44.526;11.360;2023-04-01T12:30:25;21.00;42.50
9816;DHT22;4947;44.526;11.360;2023-04-01T12:33:04;21.00;42.50
9816;DHT22;4947;44.526;11.360;2023-04-01T12:35:52;21.00;42.70
9816;DHT22;4947;44.526;11.360;2023-04-01T12:38:29;20.90;43.10
9816;DHT22;4947;44.526;11.360;2023-04-01T12:41:09;20.90;41.70
9816;DHT22;4947;44.526;11.360;2023-04-01T12:43:59;20.90;42.70
9816;DHT22;4947;44.526;11.360;2023-04-01T12:46:38;20.90;42.60
9816;DHT22;4947;44.526;11.360;2023-04-01T12:52:34;20.80;41.60
9816;DHT22;4947;44.526;11.360;2023-04-01T12:55:35;20.80;41.40
9816;DHT22;4947;44.526;11.360;2023-04-01T12:58:29;20.80;41.30
9816;DHT22;4947;44.526;11.360;2023-04-01T13:01:26;20.80;39.20
9816;DHT22;4947;44.526;11.360;2023-04-01T13:04:30;20.70;37.70
9816;DHT22;4947;44.526;11.360;2023-04-01T13:07:22;20.80;39.10
9816;DHT22;4947;44.526;11.360;2023-04-01T13:10:01;20.90;39.70
9816;DHT22;4947;44.526;11.360;2023-04-01T13:12:38;20.90;40.40
9816;DHT22;4947;44.526;11.360;2023-04-01T13:15:25;20.90;40.50
9816;DHT22;4947;44.526;11.360;2023-04-01T13:18:01;20.90;41.00
9816;DHT22;4947;44.526;11.360;2023-04-01T13:20:41;20.80;39.20
9816;DHT22;4947;44.526;11.360;2023-04-01T13:23:24;20.80;42.60
9816;DHT22;4947;44.526;11.360;2023-04-01T13:26:03;20.90;37.50
9816;DHT22;4947;44.526;11.360;2023-04-01T13:28:36;21.00;36.70
9816;DHT22;4947;44.526;11.360;2023-04-01T13:31:24;21.00;34.90
9816;DHT22;4947;44.526;11.360;2023-04-01T13:34:00;21.00;35.60
9816;DHT22;4947;44.526;11.360;2023-04-01T13:36:39;21.00;37.60
9816;DHT22;4947;44.526;11.360;2023-04-01T13:39:24;21.00;35.50
9816;DHT22;4947;44.526;11.360;2023-04-01T13:42:10;20.90;35.20
9816;DHT22;4947;44.526;11.360;2023-04-01T13:44:43;20.90;32.70
9816;DHT22;4947;44.526;11.360;2023-04-01T13:47:29;21.00;34.30
9816;DHT22;4947;44.526;11.360;2023-04-01T13:50:26;20.90;33.10
9816;DHT22;4947;44.526;11.360;2023-04-01T13:56:02;20.90;34.00
9816;DHT22;4947;44.526;11.360;2023-04-01T13:58:51;20.90;33.20
9816;DHT22;4947;44.526;11.360;2023-04-01T14:01:29;20.90;35.70
9816;DHT22;4947;44.526;11.360;2023-04-01T14:04:27;20.90;33.40
9816;DHT22;4947;44.526;11.360;2023-04-01T14:07:18;20.90;32.70
9816;DHT22;4947;44.526;11.360;2023-04-01T14:10:04;20.80;33.10
9816;DHT22;4947;44.526;11.360;2023-04-01T14:12:39;20.90;31.90
9816;DHT22;4947;44.526;11.360;2023-04-01T14:18:27;20.80;32.00
9816;DHT22;4947;44.526;11.360;2023-04-01T14:21:10;21.00;35.20
9816;DHT22;4947;44.526;11.360;2023-04-01T14:24:03;21.10;35.50
9816;DHT22;4947;44.526;11.360;2023-04-01T14:29:43;21.10;35.30
9816;DHT22;4947;44.526;11.360;2023-04-01T14:32:25;21.00;34.90
9816;DHT22;4947;44.526;11.360;2023-04-01T14:35:01;20.90;35.40
9816;DHT22;4947;44.526;11.360;2023-04-01T14:37:52;20.90;35.60
9816;DHT22;4947;44.526;11.360;2023-04-01T14:40:27;20.90;35.40
9816;DHT22;4947;44.526;11.360;2023-04-01T14:46:02;20.90;37.00
9816;DHT22;4947;44.526;11.360;2023-04-01T14:48:37;20.80;36.20
9816;DHT22;4947;44.526;11.360;2023-04-01T14:51:13;20.80;34.80
9816;DHT22;4947;44.526;11.360;2023-04-01T14:53:44;20.80;34.70
9816;DHT22;4947;44.526;11.360;2023-04-01T14:56:37;20.80;35.40
9816;DHT22;4947;44.526;11.360;2023-04-01T14:59:09;20.70;34.20
9816;DHT22;4947;44.526;11.360;2023-04-01T15:01:44;20.70;34.60
9816;DHT22;4947;44.526;11.360;2023-04-01T15:04:32;20.80;36.50
9816;DHT22;4947;44.526;11.360;2023-04-01T15:07:23;20.80;36.50
9816;DHT22;4947;44.526;11.360;2023-04-01T15:09:59;20.80;36.50
9816;DHT22;4947;44.526;11.360;2023-04-01T15:12:32;20.90;34.80
9816;DHT22;4947;44.526;11.360;2023-04-01T15:15:23;20.80;36.80
9816;DHT22;4947;44.526;11.360;2023-04-01T15:18:03;20.60;35.00
9816;DHT22;4947;44.526;11.360;2023-04-01T15:20:49;20.60;37.00
9816;DHT22;4947;44.526;11.360;2023-04-01T15:23:28;20.50;37.60
9816;DHT22;4947;44.526;11.360;2023-04-01T15:26:19;20.50;36.10
9816;DHT22;4947;44.526;11.360;2023-04-01T15:28:58;20.60;36.60
9816;DHT22;4947;44.526;11.360;2023-04-01T15:31:34;20.60;35.50
9816;DHT22;4947;44.526;11.360;2023-04-01T15:34:26;20.60;37.30
9816;DHT22;4947;44.526;11.360;2023-04-01T15:37:02;20.60;35.80
9816;DHT22;4947;44.526;11.360;2023-04-01T15:39:42;20.50;33.50
9816;DHT22;4947;44.526;11.360;2023-04-01T15:42:23;20.60;34.00
9816;DHT22;4947;44.526;11.360;2023-04-01T15:45:05;20.70;36.70
9816;DHT22;4947;44.526;11.360;2023-04-01T15:47:38;20.70;37.30
9816;DHT22;4947;44.526;11.360;2023-04-01T15:50:37;20.70;35.60
9816;DHT22;4947;44.526;11.360;2023-04-01T15:53:20;20.70;35.40
9816;DHT22;4947;44.526;11.360;2023-04-01T15:55:54;20.70;35.00
9816;DHT22;4947;44.526;11.360;2023-04-01T15:58:41;20.80;35.00
9816;DHT22;4947;44.526;11.360;2023-04-01T16:01:19;20.80;35.40
9816;DHT22;4947;44.526;11.360;2023-04-01T16:03:54;20.80;36.20
9816;DHT22;4947;44.526;11.360;2023-04-01T16:09:33;20.60;35.40
9816;DHT22;4947;44.526;11.360;2023-04-01T16:12:07;20.40;40.60
9816;DHT22;4947;44.526;11.360;2023-04-01T16:14:44;20.10;42.60
9816;DHT22;4947;44.526;11.360;2023-04-01T16:17:26;19.90;42.80
9816;DHT22;4947;44.526;11.360;2023-04-01T16:19:59;19.80;43.60
9816;DHT22;4947;44.526;11.360;2023-04-01T16:22:31;19.70;44.10
9816;DHT22;4947;44.526;11.360;2023-04-01T16:25:17;19.60;45.30
9816;DHT22;4947;44.526;11.360;2023-04-01T16:27:53;19.60;45.50
9816;DHT22;4947;44.526;11.360;2023-04-01T16:30:32;19.50;45.30
9816;DHT22;4947;44.526;11.360;2023-04-01T16:33:04;19.50;45.80
9816;DHT22;4947;44.526;11.360;2023-04-01T16:35:41;19.50;45.70
9816;DHT22;4947;44.526;11.360;2023-04-01T16:38:16;19.50;45.90
9816;DHT22;4947;44.526;11.360;2023-04-01T16:40:58;19.50;46.50
9816;DHT22;4947;44.526;11.360;2023-04-01T16:43:30;19.50;44.80
9816;DHT22;4947;44.526;11.360;2023-04-01T16:46:27;19.40;44.70
9816;DHT22;4947;44.526;11.360;2023-04-01T16:49:00;19.20;43.20
9816;DHT22;4947;44.526;11.360;2023-04-01T16:51:44;18.80;42.90
9816;DHT22;4947;44.526;11.360;2023-04-01T16:54:18;18.70;43.70
9816;DHT22;4947;44.526;11.360;2023-04-01T16:56:55;18.60;44.00
9816;DHT22;4947;44.526;11.360;2023-04-01T16:59:29;18.40;44.90
9816;DHT22;4947;44.526;11.360;2023-04-01T17:02:04;18.30;45.40
9816;DHT22;4947;44.526;11.360;2023-04-01T17:04:39;18.20;45.90
9816;DHT22;4947;44.526;11.360;2023-04-01T17:07:19;18.10;46.20
9816;DHT22;4947;44.526;11.360;2023-04-01T17:09:58;18.00;46.50
9816;DHT22;4947;44.526;11.360;2023-04-01T17:12:35;17.90;47.00
9816;DHT22;4947;44.526;11.360;2023-04-01T17:15:15;17.90;47.40
9816;DHT22;4947;44.526;11.360;2023-04-01T17:17:51;17.70;47.20
9816;DHT22;4947;44.526;11.360;2023-04-01T17:20:32;17.60;48.10
9816;DHT22;4947;44.526;11.360;2023-04-01T17:23:17;17.60;47.80
9816;DHT22;4947;44.526;11.360;2023-04-01T17:25:57;17.60;48.30
9816;DHT22;4947;44.526;11.360;2023-04-01T17:28:41;17.50;48.60
9816;DHT22;4947;44.526;11.360;2023-04-01T17:31:31;17.40;49.30
9816;DHT22;4947;44.526;11.360;2023-04-01T17:34:17;17.20;49.40
9816;DHT22;4947;44.526;11.360;2023-04-01T17:37:03;17.10;49.80
9816;DHT22;4947;44.526;11.360;2023-04-01T17:39:55;17.00;50.70
9816;DHT22;4947;44.526;11.360;2023-04-01T17:42:35;16.80;51.10
9816;DHT22;4947;44.526;11.360;2023-04-01T17:45:11;16.80;51.00
9816;DHT22;4947;44.526;11.360;2023-04-01T17:47:52;16.70;51.70
9816;DHT22;4947;44.526;11.360;2023-04-01T17:50:27;16.70;51.80
9816;DHT22;4947;44.526;11.360;2023-04-01T17:53:13;16.60;52.70
9816;DHT22;4947;44.526;11.360;2023-04-01T17:55:55;16.50;53.40
9816;DHT22;4947;44.526;11.360;2023-04-01T17:58:30;16.40;53.50
9816;DHT22;4947;44.526;11.360;2023-04-01T18:01:29;16.40;54.10
9816;DHT22;4947;44.526;11.360;2023-04-01T18:04:08;16.30;54.80
9816;DHT22;4947;44.526;11.360;2023-04-01T18:06:56;16.20;54.60
9816;DHT22;4947;44.526;11.360;2023-04-01T18:09:34;16.10;55.40
9816;DHT22;4947;44.526;11.360;2023-04-01T18:12:12;16.10;56.60
9816;DHT22;4947;44.526;11.360;2023-04-01T18:14:54;16.00;57.70
9816;DHT22;4947;44.526;11.360;2023-04-01T18:17:39;16.00;58.50